createdAt,value
2018-11-28T00:00:33.778Z,19.37
2018-11-28T00:02:37.565Z,19.80
2018-11-28T00:04:41.379Z,20.62
2018-11-28T00:06:45.241Z,20.08
2018-11-28T00:08:52.046Z,20.72
2018-11-28T00:10:55.917Z,18.48
2018-11-28T00:12:59.749Z,19.50
2018-11-28T00:15:04.151Z,20.30
2018-11-28T00:17:07.975Z,18.98
2018-11-28T00:19:11.801Z,20.17
2018-11-28T00:21:15.612Z,19.02
2018-11-28T00:23:19.502Z,19.90
2018-11-28T00:25:23.677Z,19.57
2018-11-28T00:27:27.506Z,20.75
2018-11-28T00:29:31.314Z,19.73
2018-11-28T00:31:35.178Z,20.02
2018-11-28T00:33:38.995Z,20.50
2018-11-28T00:35:42.815Z,19.57
2018-11-28T00:37:47.026Z,20.20
2018-11-28T00:39:50.837Z,21.33
2018-11-28T00:41:54.693Z,20.48
2018-11-28T00:43:58.540Z,21.15
2018-11-28T00:46:02.399Z,20.35
2018-11-28T00:48:06.639Z,19.80
2018-11-28T00:50:14.630Z,22.65
2018-11-28T00:52:18.427Z,20.95
2018-11-28T00:54:22.261Z,20.20
2018-11-28T00:56:26.067Z,21.25
2018-11-28T00:58:29.898Z,21.60
2018-11-28T01:00:33.740Z,21.40
2018-11-28T01:02:38.158Z,21.85
2018-11-28T01:04:42.385Z,21.37
2018-11-28T01:06:46.183Z,21.50
2018-11-28T01:08:50.001Z,21.80
2018-11-28T01:10:54.089Z,22.32
2018-11-28T01:12:57.943Z,21.37
2018-11-28T01:15:01.815Z,21.60
2018-11-28T01:17:06.128Z,20.80
2018-11-28T01:19:09.937Z,21.48
2018-11-28T01:21:14.459Z,21.62
2018-11-28T01:23:18.288Z,22.62
2018-11-28T01:25:22.783Z,19.42
2018-11-28T01:27:26.581Z,20.55
2018-11-28T01:29:30.389Z,22.37
2018-11-28T01:31:34.237Z,20.10
2018-11-28T01:33:38.026Z,21.17
2018-11-28T01:35:41.890Z,20.02
2018-11-28T01:37:46.512Z,20.77
2018-11-28T01:39:50.350Z,21.02
2018-11-28T01:41:54.195Z,21.15
2018-11-28T01:43:57.993Z,20.60
2018-11-28T01:46:01.842Z,20.32
2018-11-28T01:48:05.853Z,20.02
2018-11-28T01:50:11.067Z,21.52
2018-11-28T01:52:14.996Z,20.80
2018-11-28T01:54:18.853Z,20.27
2018-11-28T01:56:22.718Z,21.60
2018-11-28T01:58:26.599Z,21.68
2018-11-28T02:00:30.413Z,21.45
2018-11-28T02:02:34.249Z,21.20
2018-11-28T02:04:38.135Z,21.20
2018-11-28T02:06:41.993Z,19.67
2018-11-28T02:08:45.843Z,20.77
2018-11-28T02:10:49.702Z,21.60
2018-11-28T02:12:53.452Z,20.40
2018-11-28T02:14:57.235Z,20.77
2018-11-28T02:17:01.096Z,21.10
2018-11-28T02:19:05.612Z,21.33
2018-11-28T02:21:09.462Z,21.02
2018-11-28T02:23:13.433Z,22.62
2018-11-28T02:25:18.370Z,23.50
2018-11-28T02:27:22.229Z,21.37
2018-11-28T02:29:26.059Z,24.12
2018-11-28T02:31:29.884Z,24.30
2018-11-28T02:33:34.269Z,24.30
2018-11-28T02:35:38.172Z,22.82
2018-11-28T02:37:42.141Z,24.72
2018-11-28T02:39:45.985Z,25.72
2018-11-28T02:41:49.792Z,24.57
2018-11-28T02:43:53.643Z,24.52
2018-11-28T02:46:08.780Z,23.85
2018-11-28T02:48:12.609Z,22.70
2018-11-28T02:50:16.457Z,22.55
2018-11-28T02:52:20.303Z,23.20
2018-11-28T02:54:24.122Z,22.65
2018-11-28T02:56:27.898Z,21.15
2018-11-28T02:58:31.700Z,23.67
2018-11-28T03:00:35.572Z,21.10
2018-11-28T03:02:39.407Z,21.97
2018-11-28T03:04:43.234Z,24.15
2018-11-28T03:06:47.037Z,23.92
2018-11-28T03:08:50.879Z,22.37
2018-11-28T03:10:55.028Z,22.77
2018-11-28T03:12:59.447Z,22.32
2018-11-28T03:15:03.317Z,22.30
2018-11-28T03:17:07.996Z,21.33
2018-11-28T03:19:11.822Z,21.30
2018-11-28T03:21:15.955Z,21.95
2018-11-28T03:23:19.786Z,20.75
2018-11-28T03:25:24.015Z,21.55
2018-11-28T03:27:27.841Z,22.00
2018-11-28T03:29:31.707Z,22.37
2018-11-28T03:31:35.510Z,23.77
2018-11-28T03:33:39.373Z,24.02
2018-11-28T03:35:43.173Z,20.45
2018-11-28T03:37:47.039Z,20.82
2018-11-28T03:39:50.879Z,21.95
2018-11-28T03:41:54.728Z,20.65
2018-11-28T03:43:58.523Z,22.52
2018-11-28T03:46:02.342Z,22.20
2018-11-28T03:48:06.293Z,19.67
2018-11-28T03:50:11.733Z,20.68
2018-11-28T03:52:15.549Z,19.85
2018-11-28T03:54:19.369Z,20.70
2018-11-28T03:56:23.227Z,22.65
2018-11-28T03:58:27.026Z,22.52
2018-11-28T04:00:30.856Z,22.13
2018-11-28T04:02:34.669Z,21.90
2018-11-28T04:04:38.519Z,19.98
2018-11-28T04:06:42.352Z,20.97
2018-11-28T04:08:46.188Z,22.02
2018-11-28T04:10:50.038Z,20.00
2018-11-28T04:12:53.824Z,20.00
2018-11-28T04:14:57.655Z,20.10
2018-11-28T04:17:01.488Z,19.45
2018-11-28T04:19:06.178Z,21.25
2018-11-28T04:21:10.054Z,20.68
2018-11-28T04:23:13.897Z,20.25
2018-11-28T04:25:18.940Z,19.67
2018-11-28T04:27:22.742Z,22.32
2018-11-28T04:29:26.605Z,21.55
2018-11-28T04:31:30.419Z,21.82
2018-11-28T04:33:34.255Z,20.23
2018-11-28T04:35:38.115Z,19.87
2018-11-28T04:37:42.221Z,20.50
2018-11-28T04:39:46.066Z,20.17
2018-11-28T04:41:49.869Z,19.87
2018-11-28T04:43:53.680Z,20.02
2018-11-28T04:45:57.511Z,20.57
2018-11-28T04:48:01.652Z,19.30
2018-11-28T04:50:06.715Z,19.00
2018-11-28T04:52:10.593Z,18.60
2018-11-28T04:54:14.813Z,19.62
2018-11-28T04:56:19.110Z,18.87
2018-11-28T04:58:22.908Z,19.25
2018-11-28T05:00:27.462Z,19.90
2018-11-28T05:02:31.275Z,20.02
2018-11-28T05:04:35.084Z,20.15
2018-11-28T05:07:45.110Z,21.25
2018-11-28T05:09:48.933Z,19.20
2018-11-28T05:11:52.779Z,19.12
2018-11-28T05:13:56.602Z,19.65
2018-11-28T05:16:00.451Z,20.68
2018-11-28T05:18:04.284Z,21.52
2018-11-28T05:20:10.308Z,22.05
2018-11-28T05:22:14.210Z,21.68
2018-11-28T05:24:18.493Z,21.45
2018-11-28T05:26:22.334Z,20.35
2018-11-28T05:28:26.191Z,21.75
2018-11-28T05:30:31.107Z,21.93
2018-11-28T05:32:35.363Z,20.88
2018-11-28T05:34:39.248Z,21.75
2018-11-28T05:36:43.250Z,20.72
2018-11-28T05:38:47.190Z,21.77
2018-11-28T05:40:52.225Z,20.97
2018-11-28T05:42:56.589Z,23.12
2018-11-28T05:45:00.407Z,20.05
2018-11-28T05:47:04.383Z,22.77
2018-11-28T05:49:08.679Z,20.25
2018-11-28T05:51:13.074Z,21.52
2018-11-28T05:53:23.428Z,21.20
2018-11-28T05:55:27.289Z,21.20
2018-11-28T05:57:31.229Z,20.15
2018-11-28T05:59:35.146Z,20.50
2018-11-28T06:01:39.103Z,19.50
2018-11-28T06:03:43.006Z,21.10
2018-11-28T06:05:57.171Z,20.23
2018-11-28T06:08:01.232Z,20.85
2018-11-28T06:10:05.461Z,21.45
2018-11-28T06:12:09.448Z,20.70
2018-11-28T06:14:20.014Z,20.77
2018-11-28T06:16:25.715Z,21.55
2018-11-28T06:18:29.563Z,21.10
2018-11-28T06:20:33.479Z,21.52
2018-11-28T06:22:37.464Z,20.57
2018-11-28T06:24:41.403Z,20.55
2018-11-28T06:26:45.240Z,19.80
2018-11-28T06:28:49.865Z,19.92
2018-11-28T06:30:52.968Z,19.87
2018-11-28T06:32:57.116Z,22.00
2018-11-28T06:35:00.931Z,22.10
2018-11-28T06:37:05.268Z,20.45
2018-11-28T06:39:10.214Z,20.82
2018-11-28T06:41:15.097Z,21.42
2018-11-28T06:43:24.810Z,21.15
2018-11-28T06:45:32.458Z,22.73
2018-11-28T06:47:43.884Z,21.95
2018-11-28T06:52:16.576Z,22.50
2018-11-28T06:54:23.524Z,22.27
2018-11-28T06:56:27.854Z,22.27
2018-11-28T06:58:32.709Z,20.52
2018-11-28T07:00:51.157Z,20.52
2018-11-28T07:03:14.199Z,19.10
2018-11-28T07:05:41.315Z,21.75
2018-11-28T07:08:14.150Z,21.07
2018-11-28T07:11:21.840Z,21.10
2018-11-28T07:13:41.750Z,19.87
2018-11-28T07:16:05.447Z,20.12
2018-11-28T07:18:29.221Z,18.85
2018-11-28T07:23:31.187Z,19.32
2018-11-28T07:25:56.053Z,21.25
2018-11-28T07:30:57.055Z,19.62
2018-11-28T07:36:15.010Z,20.15
2018-11-28T07:38:34.876Z,19.07
2018-11-28T07:40:44.819Z,19.10
2018-11-28T07:45:33.403Z,18.87
2018-11-28T07:50:31.880Z,19.30
2018-11-28T07:52:50.185Z,18.40
2018-11-28T07:54:59.134Z,18.40
2018-11-28T07:57:12.534Z,19.15
2018-11-28T07:59:20.107Z,18.07
2018-11-28T08:10:27.756Z,16.52
2018-11-28T08:12:33.642Z,17.80
2018-11-28T08:14:37.668Z,18.90
2018-11-28T08:16:48.125Z,18.65
2018-11-28T08:18:53.572Z,17.62
2018-11-28T08:20:57.561Z,19.17
2018-11-28T08:23:04.688Z,17.85
2018-11-28T08:25:17.316Z,19.00
2018-11-28T08:27:22.269Z,18.62
2018-11-28T08:29:31.373Z,18.10
2018-11-28T08:31:36.261Z,16.85
2018-11-28T08:33:42.952Z,19.40
2018-11-28T08:35:47.736Z,18.65
2018-11-28T08:37:51.559Z,18.17
2018-11-28T08:39:58.151Z,16.93
2018-11-28T08:42:06.174Z,17.20
2018-11-28T08:44:11.183Z,17.70
2018-11-28T08:46:22.239Z,17.48
2018-11-28T08:48:42.627Z,16.60
2018-11-28T08:50:55.370Z,17.15
2018-11-28T08:53:10.906Z,17.52
2018-11-28T08:58:09.488Z,17.57
2018-11-28T09:03:21.133Z,17.37
2018-11-28T09:05:33.860Z,17.07
2018-11-28T15:42:20.529Z,12.78
2018-11-28T15:44:24.378Z,12.20
2018-11-28T15:46:28.144Z,11.88
2018-11-28T15:48:31.927Z,11.78
2018-11-28T15:50:35.734Z,11.25
2018-11-28T15:52:39.537Z,12.68
2018-11-28T15:54:43.737Z,13.18
2018-11-28T15:56:47.545Z,11.50
2018-11-28T15:58:51.383Z,11.33
2018-11-28T16:00:55.573Z,11.78
2018-11-28T16:02:59.881Z,12.20
2018-11-28T16:05:03.842Z,11.83
2018-11-28T16:07:07.654Z,11.45
2018-11-28T16:09:16.586Z,11.05
2018-11-28T16:11:20.355Z,11.50
2018-11-28T16:13:24.173Z,11.45
2018-11-28T16:15:29.758Z,11.78
2018-11-28T16:17:33.526Z,12.05
2018-11-28T16:19:37.278Z,11.40
2018-11-28T16:21:41.415Z,10.55
2018-11-28T16:23:45.286Z,10.98
2018-11-28T16:25:49.394Z,11.28
2018-11-28T16:27:53.346Z,10.28
2018-11-28T16:29:57.386Z,11.10
2018-11-28T16:32:01.478Z,10.20
2018-11-28T16:34:05.614Z,10.68
2018-11-28T16:36:09.483Z,9.53
2018-11-28T16:38:13.388Z,9.45
2018-11-28T16:40:17.608Z,10.08
2018-11-28T16:42:21.735Z,9.75
2018-11-28T16:44:26.366Z,11.35
2018-11-28T16:46:30.402Z,9.78
2018-11-28T16:48:34.193Z,10.20
2018-11-28T16:50:37.996Z,9.25
2018-11-28T16:52:42.664Z,9.90
2018-11-28T16:54:46.616Z,9.95
2018-11-28T16:56:50.579Z,9.83
2018-11-28T16:58:54.493Z,10.48
2018-11-28T17:00:58.858Z,10.25
2018-11-28T17:03:02.850Z,10.82
2018-11-28T17:05:16.038Z,9.98
2018-11-28T17:07:19.907Z,10.93
2018-11-28T17:09:23.738Z,10.45
2018-11-28T17:11:27.547Z,10.25
2018-11-28T17:13:31.323Z,10.75
2018-11-28T17:15:35.085Z,10.18
2018-11-28T17:17:38.853Z,11.08
2018-11-28T17:19:42.661Z,10.35
2018-11-28T17:21:46.609Z,10.98
2018-11-28T17:23:50.395Z,10.13
2018-11-28T17:25:54.243Z,10.90
2018-11-28T17:27:58.212Z,9.43
2018-11-28T17:30:01.978Z,9.50
2018-11-28T17:32:06.104Z,10.30
2018-11-28T17:34:09.897Z,10.08
2018-11-28T17:36:13.650Z,10.78
2018-11-28T17:38:17.423Z,10.38
2018-11-28T17:40:25.309Z,10.78
2018-11-28T17:42:29.103Z,10.80
2018-11-28T17:44:32.875Z,10.98
2018-11-28T17:46:36.654Z,10.35
2018-11-28T17:48:40.490Z,10.58
2018-11-28T17:50:44.278Z,9.53
2018-11-28T17:53:09.311Z,10.23
2018-11-28T17:55:14.813Z,10.95
2018-11-28T17:57:18.571Z,9.68
2018-11-28T17:59:22.382Z,9.20
2018-11-28T18:01:26.221Z,10.72
2018-11-28T18:03:30.045Z,9.90
2018-11-28T18:05:33.857Z,9.75
2018-11-28T18:07:38.112Z,10.10
2018-11-28T18:09:42.012Z,10.65
2018-11-28T18:11:45.817Z,10.43
2018-11-28T18:13:49.612Z,10.40
2018-11-28T18:15:54.506Z,10.68
2018-11-28T18:17:58.447Z,11.73
2018-11-28T18:29:58.159Z,11.28
2018-11-28T18:32:01.962Z,11.12
2018-11-28T18:34:05.790Z,10.85
2018-11-28T18:36:09.614Z,10.72
2018-11-28T18:38:13.381Z,10.93
2018-11-28T18:40:17.194Z,11.15
2018-11-28T18:42:20.932Z,9.90
2018-11-28T18:44:24.757Z,11.35
2018-11-28T18:46:28.527Z,11.90
2018-11-28T18:48:32.294Z,11.28
2018-11-28T18:50:36.130Z,11.30
2018-11-28T18:52:39.911Z,11.48
2018-11-28T18:54:43.714Z,12.75
2018-11-28T18:56:47.485Z,11.20
2018-11-28T18:58:51.268Z,11.43
2018-11-28T19:00:55.051Z,9.55
2018-11-28T19:02:58.851Z,14.93
2018-11-28T19:05:02.661Z,12.25
2018-11-28T19:07:06.781Z,12.23
2018-11-28T19:09:14.734Z,11.97
2018-11-28T19:11:18.870Z,12.88
2018-11-28T19:13:22.663Z,10.75
2018-11-28T19:15:27.696Z,11.48
2018-11-28T19:17:31.471Z,12.75
2018-11-28T19:19:35.299Z,13.70
2018-11-28T19:21:39.071Z,16.42
2018-11-28T19:23:42.838Z,11.88
2018-11-28T19:25:49.903Z,15.03
2018-11-28T19:27:50.499Z,12.90
2018-11-28T19:29:54.285Z,13.48
2018-11-28T19:31:58.010Z,15.63
2018-11-28T19:34:01.876Z,15.50
2018-11-28T19:36:05.706Z,15.40
2018-11-28T19:38:12.393Z,17.05
2018-11-28T19:40:21.862Z,16.35
2018-11-28T19:42:25.618Z,15.48
2018-11-28T19:44:29.439Z,14.75
2018-11-28T19:46:33.176Z,14.75
2018-11-28T19:48:36.961Z,15.25
2018-11-28T19:50:40.756Z,15.43
2018-11-28T19:52:44.587Z,14.10
2018-11-28T19:54:48.406Z,20.68
2018-11-28T19:56:52.204Z,15.55
2018-11-28T19:58:55.975Z,17.32
2018-11-28T20:00:59.778Z,14.68
2018-11-28T20:03:03.668Z,14.33
2018-11-28T20:05:07.531Z,15.75
2018-11-28T20:07:11.305Z,15.30
2018-11-28T20:09:21.832Z,15.88
2018-11-28T20:11:25.613Z,15.80
2018-11-28T20:13:29.380Z,16.02
2018-11-28T20:15:33.301Z,16.15
2018-11-28T20:17:37.051Z,15.88
2018-11-28T20:19:40.802Z,14.63
2018-11-28T20:21:44.588Z,14.58
2018-11-28T20:23:48.401Z,16.17
2018-11-28T20:25:52.186Z,16.87
2018-11-28T20:27:58.406Z,18.35
2018-11-28T20:30:02.204Z,17.87
2018-11-28T20:32:06.369Z,16.97
2018-11-28T20:34:10.175Z,16.67
2018-11-28T20:36:13.974Z,14.98
2018-11-28T20:38:25.529Z,16.77
2018-11-28T20:40:32.522Z,16.73
2018-11-28T20:42:36.311Z,16.05
2018-11-28T20:44:40.075Z,15.63
2018-11-28T20:46:43.855Z,15.63
2018-11-28T20:48:47.611Z,14.73
2018-11-28T20:50:52.058Z,15.55
2018-11-28T20:52:57.467Z,15.18
2018-11-28T20:55:01.310Z,16.15
2018-11-28T20:57:05.427Z,14.20
2018-11-28T20:59:09.191Z,14.60
2018-11-28T21:01:13.426Z,15.85
2018-11-28T21:03:17.202Z,15.45
2018-11-28T21:05:21.391Z,15.03
2018-11-28T21:07:25.242Z,16.25
2018-11-28T21:09:28.995Z,15.95
2018-11-28T21:11:32.806Z,15.75
2018-11-28T21:13:36.555Z,16.65
2018-11-28T21:15:41.044Z,16.75
2018-11-28T21:17:45.435Z,16.42
2018-11-28T21:19:49.219Z,15.18
2018-11-28T21:21:52.988Z,16.00
2018-11-28T21:23:56.771Z,17.82
2018-11-28T21:26:00.563Z,16.00
2018-11-28T21:28:04.396Z,16.55
2018-11-28T21:30:10.561Z,16.62
2018-11-28T21:32:14.366Z,15.63
2018-11-28T21:34:18.146Z,15.83
2018-11-28T21:36:21.940Z,16.02
2018-11-28T21:38:26.785Z,15.05
2018-11-28T21:40:30.560Z,15.68
2018-11-28T21:42:34.351Z,16.80
2018-11-28T21:44:38.123Z,15.88
2018-11-28T21:46:41.931Z,16.52
2018-11-28T21:48:45.695Z,16.05
2018-11-28T21:50:49.444Z,16.00
2018-11-28T21:52:53.647Z,15.48
2018-11-28T21:54:57.376Z,16.07
2018-11-28T21:57:01.158Z,16.50
2018-11-28T21:59:04.939Z,17.35
2018-11-28T22:01:08.702Z,18.57
2018-11-28T22:03:12.505Z,17.90
2018-11-28T22:05:16.809Z,19.37
2018-11-28T22:07:20.637Z,19.42
2018-11-28T22:09:24.487Z,19.60
2018-11-28T22:11:28.283Z,17.62
2018-11-28T22:13:32.056Z,17.00
2018-11-28T22:15:35.846Z,17.27
2018-11-28T22:17:40.774Z,18.75
2018-11-28T22:19:44.550Z,19.30
2018-11-28T22:21:48.334Z,18.42
2018-11-28T22:23:52.139Z,18.17
2018-11-28T22:25:55.898Z,17.30
2018-11-28T22:27:59.665Z,18.55
2018-11-28T22:30:03.493Z,15.68
2018-11-28T22:32:07.295Z,15.80
2018-11-28T22:34:11.051Z,16.02
2018-11-28T22:36:14.829Z,17.07
2018-11-28T22:38:19.158Z,16.32
2018-11-28T22:40:24.029Z,14.73
2018-11-28T22:42:27.823Z,12.85
2018-11-28T22:44:31.621Z,13.45
2018-11-28T22:46:35.383Z,14.47
2018-11-28T22:48:39.199Z,14.90
2018-11-28T22:50:42.961Z,22.52
2018-11-28T22:52:47.082Z,16.93
2018-11-28T22:54:51.278Z,15.48
2018-11-28T22:56:55.074Z,17.42
2018-11-28T22:58:58.872Z,15.00
2018-11-28T23:01:11.058Z,22.90
2018-11-28T23:03:14.841Z,19.07
2018-11-28T23:05:18.903Z,18.45
2018-11-28T23:07:22.686Z,15.72
2018-11-28T23:09:26.614Z,15.90
2018-11-28T23:11:30.373Z,14.58
2018-11-28T23:13:34.182Z,13.15
2018-11-28T23:15:38.351Z,13.95
2018-11-28T23:17:42.166Z,14.78
2018-11-28T23:19:45.970Z,15.05
2018-11-28T23:21:50.156Z,15.68
2018-11-28T23:23:53.545Z,14.83
2018-11-28T23:25:57.302Z,17.75
2018-11-28T23:28:01.105Z,16.20
2018-11-28T23:30:05.576Z,15.65
2018-11-28T23:32:09.346Z,16.52
2018-11-28T23:34:13.107Z,14.18
2018-11-28T23:36:16.917Z,17.57
2018-11-28T23:38:20.729Z,14.28
2018-11-28T23:40:25.611Z,13.53
2018-11-28T23:42:29.367Z,15.95
2018-11-28T23:44:33.170Z,15.88
2018-11-28T23:46:36.948Z,17.55
2018-11-28T23:48:40.760Z,17.37
2018-11-28T23:50:44.563Z,18.85
2018-11-28T23:52:48.821Z,15.85
2018-11-28T23:54:52.627Z,16.27
2018-11-28T23:56:56.403Z,15.83
2018-11-28T23:59:00.364Z,17.45
